Flight Track Log - Related Links

Times and Time Zones

All times are in EDT time to prevent confusion due to time zone crossing. See the CJA923 flight status page for this flight to view local times or setup timezone preferences in your user account.

Time Position Orientation Groundspeed Altitude Reporting Facility
EDT Latitude Longitude Course Direction KTS MPH feet Rate Location/Type
Sat 12:28:03 PM 23.2128 -81.3544 10° North 452 520 7,700  Level Miami Center
Sat 12:29:03 PM 23.2947 -81.3392 10° North 369 425 10,300 1,850 Climbing Miami Center
Sat 12:30:03 PM 23.3850 -81.3219 North 339 390 11,400 1,600 Climbing Miami Center
Sat 12:31:03 PM 23.4858 -81.3072 11° North 344 396 13,500 2,100 Climbing Miami Center
Sat 12:32:03 PM 23.5950 -81.2839 North 369 425 15,600 2,050 Climbing Miami Center
Sat 12:33:03 PM 23.7061 -81.2697 North 390 449 17,600 1,950 Climbing Miami Center
Sat 12:34:03 PM 23.8214 -81.2556 359° North 406 467 19,500 1,800 Climbing Miami Center
Sat 12:35:03 PM 23.9319 -81.2569 359° North 424 488 21,200 1,500 Climbing Miami Center
Sat 12:36:03 PM 24.0531 -81.2589 359° North 424 488 22,500 1,350 Climbing Miami Center
Sat 12:37:03 PM 24.1806 -81.2611 359° North 437 503 23,900 1,300 Climbing Miami Center
Sat 12:38:03 PM 24.3097 -81.2633 358° North 449 517 25,100 1,100 Climbing Miami Center
Sat 12:39:03 PM 24.4433 -81.2681 359° North 459 528 26,100 1,000 Climbing Miami Center
Sat 12:40:03 PM 24.5750 -81.2706 360° North 464 534 27,100 950 Climbing Miami Center
Sat 12:41:03 PM 24.7128 -81.2708 359° North 478 550 28,000 900 Climbing Miami Center
Sat 12:42:03 PM 24.8506 -81.2736 359° North 489 563 28,900 1,050 Climbing Miami Center
Sat 12:43:03 PM 24.9925 -81.2764 359° North 495 570 30,100 1,100 Climbing Miami Center
Sat 12:44:03 PM 25.1322 -81.2792 359° North 495 570 31,100 900 Climbing Miami Center
Sat 12:45:03 PM 25.2722 -81.2819 359° North 495 570 31,900 800 Climbing Miami Center
Sat 12:47:03 PM 25.5603 -81.2856 359° North 507 583 33,500 700 Climbing Miami Center
Sat 12:48:03 PM 25.7042 -81.2883 359° North 512 589 34,000 750 Climbing Miami Center
Sat 12:49:03 PM 25.8525 -81.2917 360° North 517 595 35,000 1,050 Climbing Miami Center
Sat 12:50:03 PM 25.9944 -81.2922 360° North 517 595 36,100 950 Climbing Miami Center
Sat 12:51:03 PM 26.1467 -81.2933 358° North 505 581 36,900 450 Climbing Miami Center
Sat 12:52:03 PM 26.2864 -81.2986 360° North 500 575 37,000 50 Climbing Miami Center
Sat 12:53:03 PM 26.4264 -81.2992 359° North 500 575 37,000  Level Miami Center
Sat 12:54:03 PM 26.5536 -81.3017 359° North 495 570 37,000  Level Miami Center
Sat 12:55:03 PM 26.6914 -81.3044 359° North 495 570 37,000  Level Miami Center
Sat 12:56:03 PM 26.8417 -81.3078 358° North 495 570 37,000  Level Miami Center
Sat 12:57:03 PM 26.9792 -81.3131 North 495 570 37,000  Level Miami Center
Sat 12:58:03 PM 27.1192 -81.3114 359° North 495 570 37,000  Level Miami Center
Sat 12:59:03 PM 27.2589 -81.3144 359° North 495 570 37,000  Level Miami Center
Sat 01:00:03 PM 27.3842 -81.3169 360° North 495 570 37,000  Level Miami Center
Sat 01:01:03 PM 27.5239 -81.3178 359° North 495 570 37,000  Level Miami Center
Sat 01:02:03 PM 27.6636 -81.3208 359° North 495 570 37,000  Level Miami Center
Sat 01:03:03 PM 27.7992 -81.3239 360° North 495 570 37,000  Level Miami Center
Sat 01:04:03 PM 27.9392 -81.3244 359° North 495 570 37,000  Level Miami Center
Sat 01:05:58 PM 28.2136 -81.3308 358° North 495 570 37,000  Level Jacksonville Center
Sat 01:06:58 PM 28.3492 -81.3358 359° North 495 570 37,000  Level Jacksonville Center
Sat 01:07:58 PM 28.4847 -81.3386 357° North 490 564 37,000  Level Jacksonville Center
Sat 01:08:58 PM 28.6186 -81.3458 355° North 484 557 37,000  Level Jacksonville Center
Sat 01:09:58 PM 28.7481 -81.3581 355° North 473 544 37,000  Level Jacksonville Center
Sat 01:10:58 PM 28.8797 -81.3703 356° North 473 544 37,000  Level Jacksonville Center
Sat 01:11:58 PM 29.0072 -81.3803 354° North 468 539 37,000  Level Jacksonville Center
Sat 01:12:58 PM 29.1367 -81.3950 356° North 463 533 37,000  Level Jacksonville Center
Sat 01:13:58 PM 29.2661 -81.4047 353° North 463 533 37,000  Level Jacksonville Center
Sat 01:14:58 PM 29.3894 -81.4219 356° North 458 527 37,000  Level Jacksonville Center
Sat 01:15:58 PM 29.5150 -81.4319 355° North 453 521 37,000  Level Jacksonville Center
Sat 01:16:58 PM 29.6403 -81.4444 355° North 453 521 37,000  Level Jacksonville Center
Sat 01:17:57 PM 29.7700 -81.4569 355° North 458 527 37,000  Level Jacksonville Center
Sat 01:18:58 PM 29.8953 -81.4694 356° North 458 527 37,000  Level Jacksonville Center
Sat 01:19:57 PM 30.0186 -81.4797 355° North 458 527 37,000  Level Jacksonville Center
Sat 01:20:58 PM 30.1461 -81.4922 355° North 458 527 37,000  Level Jacksonville Center
Sat 01:21:58 PM 30.2714 -81.5047 North 458 527 37,000  Level Jacksonville Center
Sat 01:22:57 PM 30.3989 -81.5006 North 458 527 37,000  Level Jacksonville Center
Sat 01:23:57 PM 30.5239 -81.4794 North 453 521 37,000  Level Jacksonville Center
Sat 01:24:58 PM 30.6383 -81.4583 North 459 528 37,000  Level Jacksonville Center
Sat 01:25:58 PM 30.7614 -81.4372 North 459 528 37,000  Level Jacksonville Center
Sat 01:26:58 PM 30.8864 -81.4183 North 454 522 37,000  Level Jacksonville Center
Sat 01:27:58 PM 31.0094 -81.3969 North 449 517 37,000  Level Jacksonville Center
Sat 01:28:57 PM 31.1344 -81.3731 North 449 517 37,000  Level Jacksonville Center
Sat 01:29:57 PM 31.2614 -81.3517 North 444 511 37,000  Level Jacksonville Center
Sat 01:30:57 PM 31.3950 -81.3325 North 444 511 37,000  Level Jacksonville Center
Sat 01:31:57 PM 31.5072 -81.3111 North 451 519 37,000  Level Jacksonville Center
Sat 01:32:57 PM 31.6450 -81.2892 North 456 525 37,000  Level Jacksonville Center
Sat 01:33:58 PM 31.7678 -81.2675 North 456 525 37,000  Level Jacksonville Center
Sat 01:34:58 PM 31.8989 -81.2433 North 456 525 37,000  Level Jacksonville Center
Sat 01:35:57 PM 32.0239 -81.2214 North 465 535 37,000  Level Jacksonville Center
Sat 01:36:58 PM 32.1511 -81.1994 14° North 465 535 37,000  Level Jacksonville Center
Sat 01:37:58 PM 32.2736 -81.1628 15° North 465 535 37,000  Level Jacksonville Center
Sat 01:38:58 PM 32.4006 -81.1233 13° North 465 535 37,000  Level Jacksonville Center
Sat 01:39:58 PM 32.5128 -81.0917 15° North 459 528 37,000  Level Jacksonville Center
Sat 01:40:58 PM 32.6500 -81.0494 14° North 452 520 37,000  Level Jacksonville Center
Sat 01:41:58 PM 32.7747 -81.0125 14° North 452 520 37,000  Level Jacksonville Center
Sat 01:42:58 PM 32.8847 -80.9806 15° North 452 520 37,000  Level Jacksonville Center
Sat 01:43:58 PM 33.0117 -80.9406 14° North 452 520 37,000  Level Jacksonville Center
Sat 01:44:58 PM 33.1383 -80.9031 15° North 452 520 37,000  Level Jacksonville Center
Sat 01:45:58 PM 33.2608 -80.8631 14° North 452 520 37,000  Level Jacksonville Center
Sat 01:47:58 PM 33.5142 -80.7875 15° North 452 520 37,000  Level Jacksonville Center
Sat 01:48:58 PM 33.6386 -80.7472 14° North 452 520 37,000  Level Jacksonville Center
Sat 01:49:58 PM 33.7633 -80.7092 15° North 452 520 37,000  Level Jacksonville Center
Sat 01:50:58 PM 33.8878 -80.6686 14° North 452 520 37,000  Level Jacksonville Center
Sat 01:51:58 PM 34.0122 -80.6303 14° North 452 520 37,000  Level Jacksonville Center
Sat 01:54:04 PM 34.2831 -80.5467 15° North 450 518 37,000  Level Atlanta Center
Sat 01:55:04 PM 34.4050 -80.5064 13° North 450 518 37,000  Level Atlanta Center
Sat 01:56:04 PM 34.5314 -80.4708 17° North 455 524 37,000  Level Atlanta Center
Sat 01:57:04 PM 34.6553 -80.4253 14° North 455 524 37,000  Level Atlanta Center
Sat 01:58:04 PM 34.7814 -80.3869 15° North 455 524 37,000  Level Atlanta Center
Sat 01:59:04 PM 34.8889 -80.3519 15° North 455 524 37,000  Level Atlanta Center
Sat 02:00:04 PM 35.0150 -80.3108 15° North 450 518 37,000  Level Atlanta Center
Sat 02:01:04 PM 35.1367 -80.2722 14° North 450 518 37,000  Level Atlanta Center
Sat 02:02:04 PM 35.2608 -80.2336 16° North 451 519 37,000  Level Atlanta Center
Sat 02:03:04 PM 35.3825 -80.1922 15° North 451 519 37,000  Level Atlanta Center
Sat 02:04:04 PM 35.5044 -80.1533 15° North 451 519 37,000  Level Atlanta Center
Sat 02:05:04 PM 35.6283 -80.1117 15° North 451 519 37,000  Level Atlanta Center
Sat 02:06:04 PM 35.7503 -80.0728 14° North 451 519 37,000  Level Atlanta Center
Sat 02:08:22 PM 36.0483 -79.9800 18° North 458 527 37,000  Level Washington Center
Sat 02:09:23 PM 36.1564 -79.9372 17° North 458 527 37,000  Level Washington Center
Sat 02:10:24 PM 36.2792 -79.8897 18° North 458 527 37,000  Level Washington Center
Sat 02:11:21 PM 36.4019 -79.8397 17° North 458 527 37,000  Level Washington Center
Sat 02:12:22 PM 36.5394 -79.7878 17° North 458 527 37,000  Level Washington Center
Sat 02:13:22 PM 36.6619 -79.7425 18° North 458 527 37,000  Level Washington Center
Sat 02:14:23 PM 36.7828 -79.6947 17° North 458 527 37,000  Level Washington Center
Sat 02:15:23 PM 36.9053 -79.6467 19° North 458 527 37,000  Level Washington Center
Sat 02:16:21 PM 37.0156 -79.5978 22° Northeast 458 527 37,000  Level Washington Center
Sat 02:17:22 PM 37.1342 -79.5389 22° Northeast 458 527 37,000  Level Washington Center
Sat 02:18:23 PM 37.2550 -79.4772 23° Northeast 458 527 37,000  Level Washington Center
Sat 02:19:21 PM 37.3825 -79.4078 19° North 458 527 37,000  Level Washington Center
Sat 02:20:21 PM 37.5072 -79.3539 22° Northeast 463 533 37,000  Level Washington Center
Sat 02:21:22 PM 37.6156 -79.2989 23° Northeast 457 526 37,000  Level Washington Center
Sat 02:22:22 PM 37.7364 -79.2339 22° Northeast 452 520 37,000  Level Washington Center
Sat 02:23:23 PM 37.8550 -79.1739 21° North 460 529 37,000  Level Washington Center
Sat 02:24:23 PM 37.9861 -79.1092 22° Northeast 454 522 37,000  Level Washington Center
Sat 02:25:21 PM 38.1025 -79.0486 22° Northeast 454 522 37,000  Level Washington Center
Sat 02:26:22 PM 38.2233 -78.9856 22° Northeast 459 528 37,000  Level Washington Center
Sat 02:27:22 PM 38.3417 -78.9247 25° Northeast 459 528 37,000  Level Washington Center
Sat 02:28:22 PM 38.4414 -78.8656 22° Northeast 446 513 37,000  Level Washington Center
Sat 02:29:23 PM 38.5619 -78.8044 22° Northeast 441 507 37,000  Level Washington Center
Sat 02:30:21 PM 38.6844 -78.7406 22° Northeast 452 520 37,000  Level Washington Center
Sat 02:31:22 PM 38.8050 -78.6792 23° Northeast 457 526 37,000  Level Washington Center
Sat 02:32:22 PM 38.9256 -78.6147 22° Northeast 462 532 37,000  Level Washington Center
Sat 02:36:00 PM 39.3767 -78.3758 22° Northeast 471 542 37,000  Level Cleveland Center
Sat 02:37:00 PM 39.4964 -78.3128 23° Northeast 471 542 37,000  Level Cleveland Center
Sat 02:38:00 PM 39.6178 -78.2467 23° Northeast 471 542 37,000  Level Cleveland Center
Sat 02:39:00 PM 39.7375 -78.1803 22° Northeast 471 542 37,000  Level Cleveland Center
Sat 02:40:53 PM 39.9592 -78.0622 24° Northeast 468 539 37,000  Level New York Center
Sat 02:41:53 PM 40.0758 -77.9956 24° Northeast 463 533 37,000  Level New York Center
Sat 02:42:51 PM 40.1969 -77.9239 23° Northeast 469 540 37,000  Level New York Center
Sat 02:43:52 PM 40.3156 -77.8572 22° Northeast 469 540 37,000  Level New York Center
Sat 02:44:52 PM 40.4275 -77.7978 24° Northeast 464 534 37,000  Level New York Center
Sat 02:45:53 PM 40.5464 -77.7278 22° Northeast 469 540 37,000  Level New York Center
Sat 02:46:52 PM 40.6692 -77.6608 23° Northeast 469 540 37,000  Level New York Center
Sat 02:47:53 PM 40.7897 -77.5936 24° Northeast 469 540 37,000  Level New York Center
Sat 02:48:52 PM 40.9106 -77.5233 23° Northeast 469 540 37,000  Level New York Center
Sat 02:49:53 PM 41.0311 -77.4553 22° Northeast 469 540 37,000  Level New York Center
Sat 02:50:53 PM 41.1536 -77.3903 23° Northeast 469 540 37,000  Level New York Center
Sat 02:51:54 PM 41.2869 -77.3150 24° Northeast 469 540 37,000  Level New York Center
Sat 02:52:52 PM 41.4053 -77.2461 23° Northeast 469 540 37,000  Level New York Center
Sat 02:53:53 PM 41.5300 -77.1750 24° Northeast 469 540 37,000  Level New York Center
Sat 02:54:53 PM 41.6503 -77.1033 23° Northeast 469 540 37,000  Level New York Center
Sat 02:55:53 PM 41.7600 -77.0414 24° Northeast 469 540 37,000  Level New York Center
Sat 02:56:51 PM 41.8803 -76.9692 22° Northeast 469 540 37,000  Level New York Center
Sat 02:57:24 PM 41.9600 -76.9250 23° Northeast 475 547 37,000  Level Cleveland Center
Sat 02:58:24 PM 42.0789 -76.8564 24° Northeast 467 537 37,000  Level Cleveland Center
Sat 03:01:03 PM 42.3861 -76.6739 23° Northeast 473 544 37,000  Level Boston Center
Sat 03:02:03 PM 42.5033 -76.6058 24° Northeast 448 516 37,000  Level Boston Center
Sat 03:03:03 PM 42.6225 -76.5347 24° Northeast 448 516 37,000  Level Boston Center
Sat 03:04:03 PM 42.7378 -76.4661 25° Northeast 453 521 37,000  Level Boston Center
Sat 03:05:03 PM 42.8550 -76.3917 24° Northeast 453 521 37,000  Level Boston Center
Sat 03:06:03 PM 42.9742 -76.3197 23° Northeast 453 521 37,000  Level Boston Center
Sat 03:07:03 PM 43.0933 -76.2506 35° Northeast 453 521 37,000  Level Boston Center
Sat 03:08:03 PM 43.2008 -76.1461 51° Northeast 453 521 37,000  Level Boston Center
Sat 03:09:03 PM 43.2892 -75.9944 51° Northeast 474 545 37,000  Level Boston Center
Sat 03:10:03 PM 43.3792 -75.8425 51° Northeast 496 571 37,000  Level Boston Center
Sat 03:11:03 PM 43.4672 -75.6900 51° Northeast 502 578 37,000  Level Boston Center
Sat 03:12:03 PM 43.5567 -75.5372 52° Northeast 507 583 37,000  Level Boston Center
Sat 03:13:03 PM 43.6442 -75.3839 51° Northeast 507 583 37,000  Level Boston Center
Sat 03:14:03 PM 43.7314 -75.2331 51° Northeast 502 578 37,000  Level Boston Center
Sat 03:15:03 PM 43.8206 -75.0817 52° Northeast 502 578 37,000  Level Boston Center
Sat 03:16:03 PM 43.9136 -74.9158 52° Northeast 497 572 37,000  Level Boston Center
Sat 03:17:03 PM 44.0003 -74.7606 51° Northeast 497 572 37,000  Level Boston Center
Sat 03:18:03 PM 44.0867 -74.6108 52° Northeast 497 572 37,000  Level Boston Center
Sat 03:19:03 PM 44.1728 -74.4575 53° Northeast 497 572 37,000 -350 Level Boston Center
Sat 03:20:03 PM 44.2567 -74.3039 51° Northeast 497 572 36,300 -2,150 Descending Boston Center
Sat 03:21:03 PM 44.3467 -74.1500 31° Northeast 502 578 32,700 -3,750 Descending Boston Center
Sat 03:22:03 PM 44.4647 -74.0517 27° Northeast 484 557 28,800 -3,000 Descending Boston Center
Sat 03:23:03 PM 44.5803 -73.9672 28° Northeast 478 550 26,700 -2,250 Descending Boston Center
Sat 03:24:03 PM 44.6878 -73.8883 29° Northeast 450 518 24,300 -2,496 Descending Boston Center
Sat 03:25:08 PM 44.8000 -73.8000 23° Northeast 410 472 21,500 -2,688 Descending Montreal Center
Sat 03:26:08 PM 44.8833 -73.7500 19° North 390 449 18,700 -2,550 Descending Montreal Center
Sat 03:27:08 PM 44.9833 -73.7000 19° North 370 426 16,400 -2,400 Descending Montreal Center
Sat 03:28:08 PM 45.0833 -73.6500 16° North 350 403 13,900 -2,200 Descending Montreal Center
Sat 03:29:08 PM 45.1667 -73.6167 23° Northeast 330 380 12,000 -1,700 Descending Montreal Center
Sat 03:30:08 PM 45.2500 -73.5667 19° North 320 368 10,500 -1,000 Descending Montreal Center
Sat 03:31:08 PM 45.3167 -73.5333 North 290 334 10,000 -1,000 Descending Montreal Center
Sat 03:32:08 PM 45.4000 -73.5167 35° Northeast 260 299 8,500 -1,500 Descending Montreal Center
Sat 03:33:08 PM 45.4500 -73.4667 North 260 299 7,000 -1,600 Descending Montreal Center
Sat 03:34:08 PM 45.5333 -73.4500 335° Northwest 240 276 5,300 -1,150 Descending Montreal Center
Sat 03:35:08 PM 45.5833 -73.4833 290° West 220 253 4,700 -600 Descending Montreal Center
Sat 03:36:08 PM 45.6000 -73.5500 226° Southwest 180 207 4,100 -900 Descending Montreal Center
Sat 03:37:08 PM 45.5667 -73.6000 226° Southwest 160 184 2,900 -1,000 Descending Montreal Center
Sat 03:38:08 PM 45.5333 -73.6500 215° Southwest 150 173 2,100 -850 Descending Montreal Center
Sat 03:39:08 PM 45.5167 -73.6667 226° Southwest 150 173 1,200 -850 Descending Montreal Center
Sat 03:40:08 PM 45.4833 -73.7167 215° Southwest 140 161 400 -550 Descending Montreal Center
Sat 03:41:08 PM 45.4500 -73.7500 360° North 90 104 100 -150 Descending Montreal Center
Sat 03:42:08 PM 45.4500 -73.7500 360° North 40 46 100  Level Montreal Center
Sat 03:43:03 PM 45.4500 -73.7500 360° North 10 12 100  Level Montreal Center

Login

Don't have an account? Register now (free) for customized features, flight alerts, and more!